Time;durP1;ratioP1;P1;durP2;ratioP2;P2;SDS_P1;SDS_P2;PMS_P1;PMS_P2;Temp;Humidity;BMP_temperature;BMP_pressure;BME280_temperature;BME280_humidity;BME280_pressure;Samples;Min_cycle;Max_cycle;Signal;HPM_P1;HPM_P2
2023/10/26 00:00:36;;;;;;;;;;;14.30;99.90;;;;;;5096324;28;20278;-58
2023/10/26 00:03:02;;;;;;;;;;;14.40;99.90;;;;;;5096359;28;20049;-58
2023/10/26 00:05:28;;;;;;;;;;;14.30;99.90;;;;;;5112013;28;19953;-58
2023/10/26 00:07:53;;;;;;;;;;;14.30;99.90;;;;;;5096113;28;19912;-58
2023/10/26 00:10:19;;;;;;;;;;;14.20;99.90;;;;;;5096231;28;19916;-58
2023/10/26 00:12:45;;;;;;;;;;;14.10;99.90;;;;;;5085933;28;19949;-58
2023/10/26 00:15:11;;;;;;;;;;;14.10;99.90;;;;;;5075878;28;19923;-58
2023/10/26 00:17:37;;;;;;;;;;;14.10;99.90;;;;;;5087348;28;19912;-58
2023/10/26 00:20:04;;;;;;;;;;;14.10;99.90;;;;;;5096128;28;19935;-58
2023/10/26 00:22:29;;;;;;;;;;;14.10;99.90;;;;;;5095909;28;19952;-58
2023/10/26 00:24:55;;;;;;;;;;;14.10;99.90;;;;;;5096164;28;19912;-58
2023/10/26 00:27:21;;;;;;;;;;;14.00;99.90;;;;;;5096054;28;20258;-58
2023/10/26 00:29:47;;;;;;;;;;;14.00;99.90;;;;;;5094173;28;19985;-58
2023/10/26 00:32:12;;;;;;;;;;;14.00;99.90;;;;;;5094699;28;19913;-58
2023/10/26 00:34:38;;;;;;;;;;;13.90;99.90;;;;;;5095876;28;19916;-58
2023/10/26 00:37:04;;;;;;;;;;;14.00;99.90;;;;;;5095670;28;19912;-58
2023/10/26 00:39:30;;;;;;;;;;;14.00;99.90;;;;;;5094764;28;19916;-58
2023/10/26 00:41:56;;;;;;;;;;;14.00;99.90;;;;;;5096213;28;19941;-58
2023/10/26 00:44:22;;;;;;;;;;;14.00;99.90;;;;;;5094548;28;19913;-58
2023/10/26 00:46:48;;;;;;;;;;;13.90;99.90;;;;;;5095831;28;19912;-58
2023/10/26 00:49:15;;;;;;;;;;;13.90;99.90;;;;;;5077763;28;19947;-58
2023/10/26 00:52:02;;;;;;;;;;;13.90;99.90;;;;;;5095850;28;19919;-57
2023/10/26 00:54:28;;;;;;;;;;;13.80;99.90;;;;;;5095662;28;19959;-58
2023/10/26 00:56:54;;;;;;;;;;;13.80;99.90;;;;;;5095668;28;20004;-58
2023/10/26 00:59:20;;;;;;;;;;;13.70;99.90;;;;;;5094451;28;20389;-58
2023/10/26 01:01:50;;;;;;;;;;;13.80;99.90;;;;;;5094300;28;19923;-58
2023/10/26 01:04:16;;;;;;;;;;;13.70;99.90;;;;;;5095795;28;19920;-58
2023/10/26 01:06:43;;;;;;;;;;;13.60;99.90;;;;;;5094316;28;19912;-58
2023/10/26 01:09:08;;;;;;;;;;;13.70;99.90;;;;;;5095485;28;20311;-58
2023/10/26 01:11:35;;;;;;;;;;;13.70;99.90;;;;;;5095389;28;19912;-58
2023/10/26 01:14:01;;;;;;;;;;;13.60;99.90;;;;;;5073798;28;20391;-58
2023/10/26 01:16:26;;;;;;;;;;;13.60;99.90;;;;;;5076992;28;19939;-58
2023/10/26 01:18:52;;;;;;;;;;;13.60;99.90;;;;;;5094274;28;20357;-58
2023/10/26 01:21:18;;;;;;;;;;;13.60;99.90;;;;;;5094214;28;19961;-58
2023/10/26 01:23:44;;;;;;;;;;;13.50;99.90;;;;;;5094197;28;20288;-58
2023/10/26 01:26:09;;;;;;;;;;;13.60;99.90;;;;;;5095586;28;19912;-58
2023/10/26 01:28:35;;;;;;;;;;;13.60;99.90;;;;;;5094249;28;20369;-58
2023/10/26 01:31:01;;;;;;;;;;;13.60;99.90;;;;;;5095641;28;19912;-58
2023/10/26 01:33:26;;;;;;;;;;;13.60;99.90;;;;;;5070706;28;19924;-58
2023/10/26 01:35:52;;;;;;;;;;;13.60;99.90;;;;;;5073972;28;19920;-58
2023/10/26 01:38:18;;;;;;;;;;;13.60;99.90;;;;;;5073958;28;19919;-58
2023/10/26 01:40:44;;;;;;;;;;;13.50;99.90;;;;;;5074747;28;20274;-58
2023/10/26 01:43:09;;;;;;;;;;;13.60;99.90;;;;;;5075993;28;19956;-58
2023/10/26 01:45:35;;;;;;;;;;;13.60;99.90;;;;;;5077374;28;19959;-57
2023/10/26 01:48:02;;;;;;;;;;;13.60;99.90;;;;;;5077151;28;19955;-58
2023/10/26 01:50:31;;;;;;;;;;;13.40;99.90;;;;;;5073853;28;19963;-58
2023/10/26 01:52:57;;;;;;;;;;;13.50;99.90;;;;;;5057794;28;19974;-58
2023/10/26 01:55:23;;;;;;;;;;;13.30;99.90;;;;;;5073878;28;19916;-58
2023/10/26 01:57:49;;;;;;;;;;;13.30;99.90;;;;;;5073473;28;19955;-58
2023/10/26 02:00:14;;;;;;;;;;;13.30;99.90;;;;;;5073616;28;19913;-57
2023/10/26 02:02:41;;;;;;;;;;;13.30;99.90;;;;;;5090599;28;20385;-58
2023/10/26 02:05:07;;;;;;;;;;;13.30;99.90;;;;;;5073755;28;20357;-58
2023/10/26 02:07:33;;;;;;;;;;;13.30;99.90;;;;;;5058293;28;19909;-58
2023/10/26 02:09:59;;;;;;;;;;;13.30;99.90;;;;;;5058109;28;19913;-58
2023/10/26 02:12:25;;;;;;;;;;;13.30;99.90;;;;;;5063970;28;19916;-58
2023/10/26 02:14:51;;;;;;;;;;;13.30;99.90;;;;;;5076569;28;19917;-57
2023/10/26 02:17:16;;;;;;;;;;;13.40;99.90;;;;;;5085441;28;20421;-58
2023/10/26 02:19:42;;;;;;;;;;;13.30;99.90;;;;;;5097024;28;19912;-57
2023/10/26 02:22:08;;;;;;;;;;;13.40;99.90;;;;;;5097153;28;19912;-57
2023/10/26 02:24:34;;;;;;;;;;;13.40;99.90;;;;;;5098207;28;19912;-57
2023/10/26 02:26:59;;;;;;;;;;;13.40;99.90;;;;;;5098438;28;20278;-58
2023/10/26 02:29:25;;;;;;;;;;;13.30;99.90;;;;;;5098145;28;19972;-58
2023/10/26 02:31:51;;;;;;;;;;;13.20;99.90;;;;;;5098068;28;19947;-58
2023/10/26 02:34:16;;;;;;;;;;;13.30;99.90;;;;;;5097879;28;19916;-58
2023/10/26 02:36:42;;;;;;;;;;;13.40;99.90;;;;;;5096436;28;19912;-58
2023/10/26 02:39:08;;;;;;;;;;;13.40;99.90;;;;;;5096651;28;19930;-57
2023/10/26 02:41:34;;;;;;;;;;;13.40;99.90;;;;;;5097900;28;19919;-58
2023/10/26 02:44:00;;;;;;;;;;;13.30;99.90;;;;;;5097794;28;19912;-58
2023/10/26 02:46:26;;;;;;;;;;;13.30;99.90;;;;;;5096477;28;19920;-57
2023/10/26 02:48:52;;;;;;;;;;;13.30;99.90;;;;;;5096426;28;19912;-57
2023/10/26 02:51:17;;;;;;;;;;;13.30;99.90;;;;;;5096457;28;20277;-58
2023/10/26 02:53:44;;;;;;;;;;;13.30;99.90;;;;;;5095765;28;19959;-58
2023/10/26 02:56:10;;;;;;;;;;;13.30;99.90;;;;;;5096375;28;20527;-57
2023/10/26 02:58:35;;;;;;;;;;;13.30;99.90;;;;;;5097515;28;19930;-58
2023/10/26 03:01:02;;;;;;;;;;;13.40;99.90;;;;;;5097185;28;19991;-58
2023/10/26 03:03:28;;;;;;;;;;;13.40;99.90;;;;;;5097735;28;19943;-58
2023/10/26 03:05:54;;;;;;;;;;;13.30;99.90;;;;;;5097363;28;20357;-58
2023/10/26 03:08:20;;;;;;;;;;;13.40;99.90;;;;;;5096019;28;20031;-58
2023/10/26 03:10:45;;;;;;;;;;;13.40;99.90;;;;;;5097231;28;20392;-58
2023/10/26 03:13:11;;;;;;;;;;;13.30;99.90;;;;;;5082174;28;19912;-58
2023/10/26 03:15:37;;;;;;;;;;;13.20;99.90;;;;;;5075417;28;20273;-58
2023/10/26 03:18:03;;;;;;;;;;;13.20;99.90;;;;;;5092022;28;19912;-58
2023/10/26 03:20:29;;;;;;;;;;;13.20;99.90;;;;;;5097096;28;19919;-58
2023/10/26 03:22:55;;;;;;;;;;;13.30;99.90;;;;;;5097082;28;19913;-58
2023/10/26 03:25:20;;;;;;;;;;;13.20;99.90;;;;;;5097017;28;20003;-58
2023/10/26 03:27:46;;;;;;;;;;;13.20;99.90;;;;;;5097277;28;19914;-58
2023/10/26 03:30:12;;;;;;;;;;;13.30;99.90;;;;;;5095552;28;20323;-58
2023/10/26 03:32:38;;;;;;;;;;;13.30;99.90;;;;;;5096922;28;19948;-57
2023/10/26 03:35:04;;;;;;;;;;;13.20;99.90;;;;;;5095485;28;20006;-58
2023/10/26 03:37:30;;;;;;;;;;;13.20;99.90;;;;;;5095480;28;19912;-58
2023/10/26 03:39:55;;;;;;;;;;;13.20;99.90;;;;;;5096714;28;19965;-57
2023/10/26 03:42:21;;;;;;;;;;;13.20;99.90;;;;;;5096725;28;19942;-58
2023/10/26 03:44:47;;;;;;;;;;;13.20;99.90;;;;;;5095325;28;20279;-58
2023/10/26 03:47:13;;;;;;;;;;;13.20;99.90;;;;;;5095373;28;19979;-58
2023/10/26 03:49:38;;;;;;;;;;;13.20;99.90;;;;;;5096592;28;19912;-58
2023/10/26 03:52:04;;;;;;;;;;;13.30;99.90;;;;;;5095233;28;19912;-58
2023/10/26 03:54:30;;;;;;;;;;;13.30;99.90;;;;;;5095213;28;20485;-58
2023/10/26 03:56:56;;;;;;;;;;;13.30;99.90;;;;;;5096484;28;19913;-58
2023/10/26 03:59:21;;;;;;;;;;;13.30;99.90;;;;;;5095026;28;20003;-58
2023/10/26 04:01:47;;;;;;;;;;;13.30;99.90;;;;;;5094943;28;19916;-58
2023/10/26 04:04:13;;;;;;;;;;;13.30;99.90;;;;;;5096128;28;19916;-58
2023/10/26 04:06:38;;;;;;;;;;;13.30;99.90;;;;;;5095724;28;19938;-58
2023/10/26 04:09:04;;;;;;;;;;;13.20;99.90;;;;;;5096273;28;20011;-58
2023/10/26 04:11:30;;;;;;;;;;;13.20;99.90;;;;;;5096212;28;20083;-58
2023/10/26 04:13:57;;;;;;;;;;;13.20;99.90;;;;;;5075937;28;20353;-58
2023/10/26 04:16:24;;;;;;;;;;;13.20;99.90;;;;;;5076939;28;19913;-58
2023/10/26 04:18:49;;;;;;;;;;;13.30;99.90;;;;;;5096330;28;20010;-57
2023/10/26 04:21:15;;;;;;;;;;;13.30;99.90;;;;;;5096046;28;20429;-58
2023/10/26 04:23:41;;;;;;;;;;;13.30;99.90;;;;;;5096045;28;19935;-58
2023/10/26 04:26:09;;;;;;;;;;;13.40;99.90;;;;;;5096126;28;19909;-57
2023/10/26 04:28:35;;;;;;;;;;;13.40;99.90;;;;;;5096029;28;19919;-58
2023/10/26 04:31:04;;;;;;;;;;;13.30;99.90;;;;;;5095982;28;19941;-58
2023/10/26 04:33:30;;;;;;;;;;;13.30;99.90;;;;;;5095769;28;19912;-57
2023/10/26 04:35:57;;;;;;;;;;;13.40;99.90;;;;;;5096026;28;19920;-58
2023/10/26 04:38:22;;;;;;;;;;;13.40;99.90;;;;;;5095840;28;19998;-57
2023/10/26 04:40:48;;;;;;;;;;;13.40;99.90;;;;;;5095843;28;19966;-58
2023/10/26 04:43:14;;;;;;;;;;;13.50;99.90;;;;;;5095891;28;20267;-57
2023/10/26 04:45:40;;;;;;;;;;;13.40;99.90;;;;;;5095702;28;19931;-57
2023/10/26 04:48:05;;;;;;;;;;;13.40;99.90;;;;;;5095793;28;19915;-58
2023/10/26 04:50:31;;;;;;;;;;;13.50;99.90;;;;;;5094459;28;19913;-58
2023/10/26 04:52:57;;;;;;;;;;;13.50;99.90;;;;;;5096016;28;19916;-58
2023/10/26 04:55:23;;;;;;;;;;;13.50;99.90;;;;;;5095710;28;19923;-58
2023/10/26 04:57:49;;;;;;;;;;;13.50;99.90;;;;;;5095755;28;19913;-57
2023/10/26 05:00:14;;;;;;;;;;;13.50;99.90;;;;;;5095675;28;19912;-58
2023/10/26 05:02:40;;;;;;;;;;;13.50;99.90;;;;;;5095465;28;19920;-58
2023/10/26 05:05:10;;;;;;;;;;;13.50;99.90;;;;;;5095655;28;19912;-57
2023/10/26 05:07:35;;;;;;;;;;;13.40;99.90;;;;;;5095708;28;19964;-58
2023/10/26 05:10:01;;;;;;;;;;;13.50;99.90;;;;;;5095499;28;19998;-58
2023/10/26 05:12:27;;;;;;;;;;;13.30;99.90;;;;;;5087915;28;19913;-58
2023/10/26 05:14:53;;;;;;;;;;;13.30;99.90;;;;;;5075354;28;19917;-58
2023/10/26 05:17:18;;;;;;;;;;;13.30;99.90;;;;;;5086746;28;19965;-58
2023/10/26 05:19:44;;;;;;;;;;;13.40;99.90;;;;;;5099508;28;19912;-58
2023/10/26 05:22:19;;;;;;;;;;;13.40;99.90;;;;;;5098231;28;19923;-57
2023/10/26 05:24:45;;;;;;;;;;;13.40;99.90;;;;;;5099346;28;19919;-57
2023/10/26 05:27:11;;;;;;;;;;;13.40;99.90;;;;;;5098884;28;19916;-58
2023/10/26 05:29:37;;;;;;;;;;;13.40;99.90;;;;;;5098568;28;19942;-58
2023/10/26 05:32:03;;;;;;;;;;;13.40;99.90;;;;;;5088089;28;20378;-57
2023/10/26 05:34:29;;;;;;;;;;;13.40;99.90;;;;;;5079056;28;19960;-57
2023/10/26 05:36:55;;;;;;;;;;;13.40;99.90;;;;;;5078777;28;20511;-57
2023/10/26 05:39:21;;;;;;;;;;;13.50;99.90;;;;;;5078463;28;19977;-58
2023/10/26 05:41:46;;;;;;;;;;;13.50;99.90;;;;;;5078300;28;19998;-57
2023/10/26 05:44:14;;;;;;;;;;;13.40;99.90;;;;;;5077721;28;19951;-58
2023/10/26 05:46:39;;;;;;;;;;;13.50;99.90;;;;;;5078483;28;20358;-58
2023/10/26 05:49:05;;;;;;;;;;;13.60;99.90;;;;;;5078487;28;19960;-58
2023/10/26 05:51:31;;;;;;;;;;;13.70;99.90;;;;;;5078390;28;19924;-58
2023/10/26 05:53:56;;;;;;;;;;;13.70;99.90;;;;;;5078216;28;19916;-58
2023/10/26 05:56:22;;;;;;;;;;;13.70;99.90;;;;;;5078413;28;19951;-58
2023/10/26 05:58:50;;;;;;;;;;;13.90;99.90;;;;;;5077158;28;20015;-58
2023/10/26 06:01:16;;;;;;;;;;;13.90;99.90;;;;;;5077998;28;19916;-58
2023/10/26 06:03:42;;;;;;;;;;;13.90;99.90;;;;;;5078204;28;19917;-58
2023/10/26 06:06:08;;;;;;;;;;;13.90;99.90;;;;;;5078227;28;20393;-58
2023/10/26 06:08:33;;;;;;;;;;;14.00;99.90;;;;;;5078013;28;19935;-58
2023/10/26 06:10:59;;;;;;;;;;;14.10;99.90;;;;;;5078096;28;19913;-57
2023/10/26 06:13:25;;;;;;;;;;;14.20;99.90;;;;;;5077808;28;19913;-58
2023/10/26 06:15:51;;;;;;;;;;;14.50;99.90;;;;;;5076459;28;19927;-58
2023/10/26 06:18:17;;;;;;;;;;;15.30;99.90;;;;;;5095250;28;19912;-58
2023/10/26 06:20:42;;;;;;;;;;;16.70;99.90;;;;;;5097943;28;19973;-58
2023/10/26 06:23:09;;;;;;;;;;;17.70;99.90;;;;;;5096757;28;20338;-58
2023/10/26 06:25:35;;;;;;;;;;;18.60;99.90;;;;;;5096499;28;19913;-58
2023/10/26 06:28:00;;;;;;;;;;;19.20;97.50;;;;;;5073098;28;19923;-58
2023/10/26 06:30:26;;;;;;;;;;;19.60;93.10;;;;;;5076520;28;20433;-58
2023/10/26 06:32:52;;;;;;;;;;;20.00;92.40;;;;;;5076050;28;19912;-58
2023/10/26 06:35:18;;;;;;;;;;;20.00;91.30;;;;;;5077790;28;19916;-58
2023/10/26 06:37:44;;;;;;;;;;;19.90;91.10;;;;;;5077822;28;19991;-58
2023/10/26 06:40:09;;;;;;;;;;;19.60;91.30;;;;;;5077858;28;19919;-58
2023/10/26 06:42:36;;;;;;;;;;;19.60;91.70;;;;;;5075195;28;20358;-58
2023/10/26 06:45:02;;;;;;;;;;;19.20;91.20;;;;;;5075765;28;19916;-59
2023/10/26 06:47:28;;;;;;;;;;;18.90;91.70;;;;;;5077606;28;19908;-58
2023/10/26 06:49:55;;;;;;;;;;;18.60;92.00;;;;;;5077997;28;19913;-58
2023/10/26 06:52:21;;;;;;;;;;;18.00;92.80;;;;;;5076788;28;20015;-58
2023/10/26 06:54:48;;;;;;;;;;;18.40;93.90;;;;;;5062441;28;20020;-58
2023/10/26 06:57:13;;;;;;;;;;;18.60;93.80;;;;;;5057123;28;19920;-58
2023/10/26 06:59:41;;;;;;;;;;;18.80;94.20;;;;;;5070191;28;19973;-58
2023/10/26 07:02:07;;;;;;;;;;;19.00;93.50;;;;;;5076516;28;19920;-59
2023/10/26 07:04:34;;;;;;;;;;;19.10;93.50;;;;;;5075665;28;19920;-59
2023/10/26 07:07:00;;;;;;;;;;;18.40;92.50;;;;;;5073031;28;19917;-59
2023/10/26 07:09:26;;;;;;;;;;;18.50;92.90;;;;;;5072634;28;20358;-58
2023/10/26 07:11:51;;;;;;;;;;;18.60;93.50;;;;;;5075202;28;19913;-58
2023/10/26 07:14:17;;;;;;;;;;;18.60;92.30;;;;;;5075889;28;20361;-58
2023/10/26 07:16:43;;;;;;;;;;;18.50;92.50;;;;;;5076134;28;19915;-59
2023/10/26 07:19:10;;;;;;;;;;;18.90;93.70;;;;;;5089966;28;19915;-59
2023/10/26 07:21:36;;;;;;;;;;;19.30;91.00;;;;;;5076122;28;20289;-59
2023/10/26 07:24:02;;;;;;;;;;;19.50;92.90;;;;;;5091316;28;19919;-58
2023/10/26 07:26:28;;;;;;;;;;;20.00;90.80;;;;;;5065185;28;19952;-57
2023/10/26 07:28:55;;;;;;;;;;;20.10;90.20;;;;;;5057095;28;19959;-58
2023/10/26 07:31:21;;;;;;;;;;;20.10;89.90;;;;;;5057173;28;20127;-58
2023/10/26 07:33:47;;;;;;;;;;;20.00;89.30;;;;;;5057088;28;19920;-58
2023/10/26 07:36:13;;;;;;;;;;;19.70;90.10;;;;;;5056970;28;20007;-58
2023/10/26 07:38:40;;;;;;;;;;;19.70;90.40;;;;;;5056840;28;19944;-59
2023/10/26 07:41:07;;;;;;;;;;;19.50;91.60;;;;;;5062756;28;19912;-58
2023/10/26 07:43:33;;;;;;;;;;;19.50;92.20;;;;;;5076253;28;20377;-58
2023/10/26 07:45:59;;;;;;;;;;;19.20;92.30;;;;;;5075973;28;19919;-58
2023/10/26 07:48:25;;;;;;;;;;;19.30;91.90;;;;;;5073608;28;19920;-58
2023/10/26 07:50:51;;;;;;;;;;;19.30;91.20;;;;;;5075671;28;19939;-58
2023/10/26 07:53:17;;;;;;;;;;;19.30;92.60;;;;;;5075752;28;19912;-58
2023/10/26 07:55:46;;;;;;;;;;;19.40;91.60;;;;;;5075168;28;19920;-58
2023/10/26 07:58:12;;;;;;;;;;;19.40;91.50;;;;;;5072159;28;19913;-58
2023/10/26 08:00:38;;;;;;;;;;;19.40;91.70;;;;;;5075368;28;19913;-58
2023/10/26 08:03:04;;;;;;;;;;;19.40;92.20;;;;;;5074844;28;19923;-58
2023/10/26 08:05:30;;;;;;;;;;;19.10;92.50;;;;;;5073380;28;19974;-58
2023/10/26 08:07:56;;;;;;;;;;;19.10;93.50;;;;;;5074745;28;19912;-58
2023/10/26 08:10:23;;;;;;;;;;;19.00;94.00;;;;;;5075749;28;20002;-58
2023/10/26 08:12:52;;;;;;;;;;;19.10;93.50;;;;;;5075294;28;19916;-58
2023/10/26 08:15:18;;;;;;;;;;;19.10;93.50;;;;;;5075508;28;19970;-58
2023/10/26 08:17:44;;;;;;;;;;;19.20;93.90;;;;;;5075692;28;19908;-58
2023/10/26 08:20:10;;;;;;;;;;;19.20;93.70;;;;;;5075703;28;19912;-58
2023/10/26 08:22:35;;;;;;;;;;;19.30;94.90;;;;;;5075710;28;20396;-58
2023/10/26 08:25:03;;;;;;;;;;;19.40;95.10;;;;;;5075846;28;20331;-58
2023/10/26 08:27:29;;;;;;;;;;;19.40;94.60;;;;;;5075730;28;19909;-58
2023/10/26 08:29:54;;;;;;;;;;;19.50;94.10;;;;;;5075798;28;19944;-58
2023/10/26 08:32:20;;;;;;;;;;;19.50;93.90;;;;;;5075604;28;19924;-58
2023/10/26 08:34:46;;;;;;;;;;;19.50;93.90;;;;;;5075040;28;19923;-58
2023/10/26 08:37:12;;;;;;;;;;;19.40;94.20;;;;;;5074244;28;19999;-58
2023/10/26 08:39:39;;;;;;;;;;;19.50;94.60;;;;;;5073520;28;19999;-58
2023/10/26 08:42:04;;;;;;;;;;;19.60;95.30;;;;;;5074795;28;19999;-58
2023/10/26 08:44:31;;;;;;;;;;;19.60;95.90;;;;;;5074644;28;19940;-58
2023/10/26 08:47:02;;;;;;;;;;;19.70;95.40;;;;;;5066861;28;19944;-58
2023/10/26 08:49:28;;;;;;;;;;;19.70;95.80;;;;;;5055106;28;19912;-58
2023/10/26 08:51:54;;;;;;;;;;;19.60;96.30;;;;;;5067327;28;20294;-58
2023/10/26 08:54:20;;;;;;;;;;;19.50;95.70;;;;;;5079574;28;19916;-58
2023/10/26 08:56:46;;;;;;;;;;;19.50;95.70;;;;;;5079190;28;19913;-58
2023/10/26 08:59:12;;;;;;;;;;;19.60;95.90;;;;;;5079374;28;19993;-58
2023/10/26 09:01:37;;;;;;;;;;;19.70;96.10;;;;;;5077465;28;19917;-58
2023/10/26 09:04:07;;;;;;;;;;;19.70;95.60;;;;;;5063394;28;19920;-58
2023/10/26 09:06:42;;;;;;;;;;;19.80;94.90;;;;;;5074625;28;20328;-58
2023/10/26 09:09:08;;;;;;;;;;;19.90;94.40;;;;;;5073592;28;19913;-58
2023/10/26 09:11:34;;;;;;;;;;;20.10;95.30;;;;;;5078332;28;20338;-58
2023/10/26 09:14:13;;;;;;;;;;;20.30;95.30;;;;;;5073113;28;19950;-58
2023/10/26 09:16:46;;;;;;;;;;;20.40;95.00;;;;;;5077718;28;20342;-58
2023/10/26 09:19:12;;;;;;;;;;;20.50;95.50;;;;;;5076284;28;19920;-58
2023/10/26 09:21:50;;;;;;;;;;;20.70;95.00;;;;;;5076354;28;19919;-58
2023/10/26 09:24:26;;;;;;;;;;;20.70;94.80;;;;;;5076776;28;19919;-58
2023/10/26 09:27:03;;;;;;;;;;;20.50;93.70;;;;;;5078198;28;20333;-58
2023/10/26 09:29:38;;;;;;;;;;;20.70;95.10;;;;;;5077143;28;19948;-58
2023/10/26 09:32:04;;;;;;;;;;;20.80;95.80;;;;;;5075000;28;20266;-58
2023/10/26 09:34:30;;;;;;;;;;;21.00;94.50;;;;;;5078063;28;19962;-58
2023/10/26 09:36:59;;;;;;;;;;;21.20;94.20;;;;;;5074020;28;19917;-58
2023/10/26 09:39:28;;;;;;;;;;;22.20;92.20;;;;;;5078014;28;19966;-58
2023/10/26 09:41:54;;;;;;;;;;;22.80;88.00;;;;;;5078648;28;19912;-58
2023/10/26 09:44:20;;;;;;;;;;;24.00;82.90;;;;;;5077048;28;19921;-58
2023/10/26 09:46:46;;;;;;;;;;;26.60;65.40;;;;;;5065150;28;19957;-58
2023/10/26 09:49:12;;;;;;;;;;;27.40;56.30;;;;;;5076550;28;19973;-58
2023/10/26 09:51:39;;;;;;;;;;;27.20;54.80;;;;;;5076432;28;19963;-59
2023/10/26 09:54:06;;;;;;;;;;;28.30;49.10;;;;;;5078730;28;19920;-59
2023/10/26 09:56:32;;;;;;;;;;;28.60;44.00;;;;;;5078807;28;19920;-59
2023/10/26 09:58:59;;;;;;;;;;;28.70;41.30;;;;;;5074787;28;20409;-59
2023/10/26 10:01:39;;;;;;;;;;;28.90;41.20;;;;;;5092122;28;19963;-59
2023/10/26 10:04:09;;;;;;;;;;;29.30;35.20;;;;;;5067951;28;19980;-59
2023/10/26 10:06:48;;;;;;;;;;;29.10;34.70;;;;;;5078588;28;20370;-60
2023/10/26 10:09:16;;;;;;;;;;;29.50;33.20;;;;;;5074746;28;19934;-59
2023/10/26 10:11:42;;;;;;;;;;;29.60;32.00;;;;;;5076524;28;19983;-59
2023/10/26 10:14:08;;;;;;;;;;;30.20;31.30;;;;;;5064649;28;19920;-59
2023/10/26 10:16:33;;;;;;;;;;;30.00;31.30;;;;;;5080605;28;19955;-59
2023/10/26 10:19:15;;;;;;;;;;;29.70;30.60;;;;;;5094912;28;19920;-59
2023/10/26 10:21:41;;;;;;;;;;;30.10;32.00;;;;;;5078474;28;19921;-59
2023/10/26 10:24:07;;;;;;;;;;;30.40;29.50;;;;;;5073638;28;19912;-59
2023/10/26 10:26:51;;;;;;;;;;;30.90;29.80;;;;;;5070913;28;19913;-59
2023/10/26 10:29:21;;;;;;;;;;;30.80;29.80;;;;;;5069769;28;19913;-59
2023/10/26 10:31:47;;;;;;;;;;;30.80;28.70;;;;;;5072344;28;19912;-59
2023/10/26 10:34:17;;;;;;;;;;;30.50;29.40;;;;;;5070899;28;19924;-59
2023/10/26 10:37:01;;;;;;;;;;;29.90;28.10;;;;;;5064318;28;19913;-59
2023/10/26 10:39:27;;;;;;;;;;;29.80;31.20;;;;;;5058196;28;19912;-59
2023/10/26 10:41:53;;;;;;;;;;;30.00;28.20;;;;;;5057971;28;19909;-59
2023/10/26 10:44:18;;;;;;;;;;;29.70;27.50;;;;;;5058028;28;19994;-59
2023/10/26 10:46:47;;;;;;;;;;;29.60;28.50;;;;;;5070300;28;19912;-59
2023/10/26 10:49:14;;;;;;;;;;;29.80;28.90;;;;;;5073494;28;19912;-59
2023/10/26 10:51:41;;;;;;;;;;;30.40;28.00;;;;;;5077939;28;19912;-59
2023/10/26 10:54:17;;;;;;;;;;;31.10;26.40;;;;;;5071876;28;20370;-60
2023/10/26 10:56:43;;;;;;;;;;;30.90;25.70;;;;;;5075352;28;19982;-59
2023/10/26 10:59:30;;;;;;;;;;;30.80;27.30;;;;;;5076844;28;19958;-59
2023/10/26 11:02:09;;;;;;;;;;;30.80;27.80;;;;;;5071644;28;19917;-59
2023/10/26 11:04:35;;;;;;;;;;;31.20;26.80;;;;;;5073215;28;20277;-60
2023/10/26 11:07:01;;;;;;;;;;;30.80;25.60;;;;;;5074997;28;19920;-60
2023/10/26 11:09:27;;;;;;;;;;;30.40;26.40;;;;;;5075167;28;19912;-60
2023/10/26 11:11:54;;;;;;;;;;;30.30;24.90;;;;;;5075827;28;20290;-60
2023/10/26 11:14:20;;;;;;;;;;;31.00;27.50;;;;;;5075675;28;20285;-60
2023/10/26 11:16:47;;;;;;;;;;;31.60;25.60;;;;;;5080798;28;19947;-59
2023/10/26 11:19:13;;;;;;;;;;;31.50;25.50;;;;;;5096838;28;19915;-60
2023/10/26 11:21:39;;;;;;;;;;;31.30;24.70;;;;;;5096782;28;19912;-60
2023/10/26 11:24:05;;;;;;;;;;;30.80;25.60;;;;;;5096931;28;19978;-60
2023/10/26 11:26:31;;;;;;;;;;;29.90;25.40;;;;;;5078112;28;19981;-60
2023/10/26 11:29:00;;;;;;;;;;;29.10;26.00;;;;;;5076062;28;19952;-60
2023/10/26 11:31:41;;;;;;;;;;;28.90;28.00;;;;;;5075879;28;19958;-60
2023/10/26 11:34:07;;;;;;;;;;;28.60;27.30;;;;;;5075286;28;19966;-60
2023/10/26 11:36:34;;;;;;;;;;;28.40;28.10;;;;;;5075516;28;19909;-60
2023/10/26 11:39:00;;;;;;;;;;;27.80;27.80;;;;;;5076494;28;20415;-60
2023/10/26 11:41:27;;;;;;;;;;;27.40;28.20;;;;;;5076217;28;19916;-59
2023/10/26 11:43:54;;;;;;;;;;;27.20;28.60;;;;;;5076148;28;20324;-60
2023/10/26 11:46:29;;;;;;;;;;;26.90;29.80;;;;;;5076209;28;19958;-60
2023/10/26 11:48:55;;;;;;;;;;;26.70;29.90;;;;;;5075478;28;19918;-60
2023/10/26 11:51:21;;;;;;;;;;;26.90;29.60;;;;;;5076197;28;20425;-60
2023/10/26 11:53:47;;;;;;;;;;;27.20;28.50;;;;;;5075438;28;19912;-60
2023/10/26 11:56:12;;;;;;;;;;;27.40;29.50;;;;;;5075995;28;19913;-60
2023/10/26 11:58:38;;;;;;;;;;;27.30;28.70;;;;;;5076132;28;20251;-60
2023/10/26 12:01:04;;;;;;;;;;;27.10;29.60;;;;;;5075947;28;20014;-60
2023/10/26 12:03:30;;;;;;;;;;;27.30;29.20;;;;;;5075910;28;20002;-60
2023/10/26 12:05:56;;;;;;;;;;;27.80;29.20;;;;;;5076041;28;19952;-60
2023/10/26 12:08:22;;;;;;;;;;;27.90;28.20;;;;;;5075726;28;19962;-60
2023/10/26 12:10:48;;;;;;;;;;;27.90;28.30;;;;;;5075651;28;19999;-60
2023/10/26 12:13:14;;;;;;;;;;;28.00;28.80;;;;;;5075331;28;19959;-59
2023/10/26 12:15:39;;;;;;;;;;;27.80;28.50;;;;;;5075663;28;20348;-60
2023/10/26 12:18:06;;;;;;;;;;;27.60;28.80;;;;;;5091164;28;19999;-59
2023/10/26 12:20:31;;;;;;;;;;;27.10;28.50;;;;;;5096286;28;20357;-59
2023/10/26 12:22:57;;;;;;;;;;;26.50;29.40;;;;;;5096600;28;19919;-59
2023/10/26 12:25:23;;;;;;;;;;;26.20;31.20;;;;;;5078310;28;19912;-59
2023/10/26 12:27:48;;;;;;;;;;;26.50;31.40;;;;;;5075435;28;20425;-59
2023/10/26 12:30:14;;;;;;;;;;;26.30;31.50;;;;;;5075595;28;20274;-59
2023/10/26 12:32:40;;;;;;;;;;;26.40;32.30;;;;;;5075618;28;19917;-59
2023/10/26 12:35:06;;;;;;;;;;;26.30;30.20;;;;;;5075702;28;20412;-59
2023/10/26 12:37:32;;;;;;;;;;;26.10;31.90;;;;;;5075691;28;19916;-59
2023/10/26 12:39:57;;;;;;;;;;;26.00;32.20;;;;;;5075592;28;19919;-59
2023/10/26 12:42:24;;;;;;;;;;;25.90;31.80;;;;;;5075557;28;19945;-59
2023/10/26 12:44:51;;;;;;;;;;;25.70;31.50;;;;;;5075591;28;19912;-60
2023/10/26 12:47:17;;;;;;;;;;;25.40;30.80;;;;;;5075356;28;20006;-59
2023/10/26 12:49:42;;;;;;;;;;;25.20;32.70;;;;;;5075687;28;20405;-59
2023/10/26 12:52:08;;;;;;;;;;;25.20;33.60;;;;;;5075527;28;19913;-59
2023/10/26 12:54:34;;;;;;;;;;;25.20;34.40;;;;;;5075411;28;19917;-59
2023/10/26 12:56:59;;;;;;;;;;;25.60;33.50;;;;;;5075444;28;20354;-59
2023/10/26 12:59:25;;;;;;;;;;;25.70;32.70;;;;;;5075343;28;19920;-60
2023/10/26 13:01:51;;;;;;;;;;;25.70;31.60;;;;;;5075104;28;19920;-59
2023/10/26 13:04:18;;;;;;;;;;;25.70;34.00;;;;;;5075586;28;20378;-59
2023/10/26 13:06:44;;;;;;;;;;;25.80;34.20;;;;;;5075325;28;19912;-59
2023/10/26 13:09:09;;;;;;;;;;;26.00;32.30;;;;;;5075116;28;20250;-59
2023/10/26 13:11:35;;;;;;;;;;;26.20;32.40;;;;;;5074933;28;19912;-59
2023/10/26 13:14:01;;;;;;;;;;;26.40;31.70;;;;;;5074087;28;20046;-59
2023/10/26 13:16:26;;;;;;;;;;;26.30;32.30;;;;;;5076284;28;19912;-59
2023/10/26 13:18:52;;;;;;;;;;;26.40;32.00;;;;;;5093375;28;19912;-59
2023/10/26 13:21:18;;;;;;;;;;;26.40;32.40;;;;;;5074555;28;19912;-59
2023/10/26 13:23:44;;;;;;;;;;;26.70;31.80;;;;;;5074987;28;19969;-59
2023/10/26 13:26:10;;;;;;;;;;;27.20;33.00;;;;;;5075398;28;20186;-59
2023/10/26 13:28:35;;;;;;;;;;;27.40;30.40;;;;;;5075400;28;20209;-59
2023/10/26 13:31:01;;;;;;;;;;;27.10;29.80;;;;;;5075093;28;19912;-59
2023/10/26 13:33:27;;;;;;;;;;;27.00;30.60;;;;;;5075270;28;19959;-59
2023/10/26 13:35:55;;;;;;;;;;;26.80;30.80;;;;;;5074944;28;19917;-59
2023/10/26 13:38:21;;;;;;;;;;;26.80;31.90;;;;;;5077699;28;19924;-59
2023/10/26 13:40:47;;;;;;;;;;;27.00;31.40;;;;;;5078691;28;19913;-59
2023/10/26 13:43:16;;;;;;;;;;;26.90;31.00;;;;;;5078633;28;19908;-60
2023/10/26 13:45:42;;;;;;;;;;;26.70;31.10;;;;;;5078606;28;19920;-59
2023/10/26 13:48:08;;;;;;;;;;;26.30;31.80;;;;;;5078720;28;19919;-59
2023/10/26 13:50:34;;;;;;;;;;;26.10;31.80;;;;;;5078616;28;20011;-59
2023/10/26 13:53:01;;;;;;;;;;;25.90;32.20;;;;;;5078434;28;20316;-59
2023/10/26 13:55:26;;;;;;;;;;;25.60;33.20;;;;;;5078625;28;19999;-59
2023/10/26 13:57:52;;;;;;;;;;;25.50;34.20;;;;;;5078441;28;19964;-59
2023/10/26 14:00:18;;;;;;;;;;;25.30;34.40;;;;;;5078466;28;19913;-59
2023/10/26 14:02:44;;;;;;;;;;;24.90;33.90;;;;;;5078348;28;19917;-59
2023/10/26 14:05:10;;;;;;;;;;;24.70;34.40;;;;;;5078344;28;19912;-59
2023/10/26 14:07:36;;;;;;;;;;;24.50;35.50;;;;;;5078061;28;20358;-59
2023/10/26 14:10:05;;;;;;;;;;;24.50;35.50;;;;;;5078424;28;20183;-59
2023/10/26 14:12:31;;;;;;;;;;;24.30;36.60;;;;;;5077981;28;19915;-59